sensor_id;sensor_type;location;lat;lon;timestamp;pressure;altitude;pressure_sealevel;temperature;humidity
83691;BME280;73671;43.220;0.064;2023-12-20T00:01:38;99010.09;;;7.55;64.90
83691;BME280;73671;43.220;0.064;2023-12-20T00:04:03;98998.88;;;7.38;65.22
83691;BME280;73671;43.220;0.064;2023-12-20T00:06:30;98988.44;;;7.33;65.13
83691;BME280;73671;43.220;0.064;2023-12-20T00:08:55;98982.25;;;7.29;65.49
83691;BME280;73671;43.220;0.064;2023-12-20T00:11:20;98966.38;;;7.31;65.31
83691;BME280;73671;43.220;0.064;2023-12-20T00:13:46;98965.22;;;7.32;64.81
83691;BME280;73671;43.220;0.064;2023-12-20T00:16:11;98960.94;;;7.35;65.02
83691;BME280;73671;43.220;0.064;2023-12-20T00:18:37;98942.75;;;7.35;64.91
83691;BME280;73671;43.220;0.064;2023-12-20T00:21:02;98948.94;;;7.43;64.29
83691;BME280;73671;43.220;0.064;2023-12-20T00:23:28;98943.09;;;7.52;63.58
83691;BME280;73671;43.220;0.064;2023-12-20T00:25:53;98945.81;;;7.59;63.72
83691;BME280;73671;43.220;0.064;2023-12-20T00:28:18;98938.03;;;7.68;62.90
83691;BME280;73671;43.220;0.064;2023-12-20T00:30:44;98934.16;;;7.76;63.50
83691;BME280;73671;43.220;0.064;2023-12-20T00:33:09;98932.19;;;7.80;63.28
83691;BME280;73671;43.220;0.064;2023-12-20T00:35:34;98933.38;;;7.72;63.52
83691;BME280;73671;43.220;0.064;2023-12-20T00:38:00;98927.16;;;7.75;63.87
83691;BME280;73671;43.220;0.064;2023-12-20T00:40:25;98912.44;;;7.83;64.09
83691;BME280;73671;43.220;0.064;2023-12-20T00:42:50;98913.97;;;7.88;63.51
83691;BME280;73671;43.220;0.064;2023-12-20T00:45:16;98910.09;;;7.93;63.95
83691;BME280;73671;43.220;0.064;2023-12-20T00:47:41;98920.91;;;7.96;63.36
83691;BME280;73671;43.220;0.064;2023-12-20T00:50:08;98915.09;;;7.98;63.15
83691;BME280;73671;43.220;0.064;2023-12-20T00:52:34;98917.00;;;8.01;64.06
83691;BME280;73671;43.220;0.064;2023-12-20T00:54:59;98914.66;;;8.03;64.10
83691;BME280;73671;43.220;0.064;2023-12-20T00:57:25;98912.34;;;8.05;63.85
83691;BME280;73671;43.220;0.064;2023-12-20T00:59:50;98916.19;;;8.07;63.70
83691;BME280;73671;43.220;0.064;2023-12-20T01:02:16;98912.31;;;8.08;64.30
83691;BME280;73671;43.220;0.064;2023-12-20T01:04:41;98908.44;;;8.10;64.60
83691;BME280;73671;43.220;0.064;2023-12-20T01:07:07;98903.03;;;8.10;64.50
83691;BME280;73671;43.220;0.064;2023-12-20T01:09:32;98903.41;;;8.12;64.29
83691;BME280;73671;43.220;0.064;2023-12-20T01:11:58;98902.22;;;8.13;64.73
83691;BME280;73671;43.220;0.064;2023-12-20T01:14:23;98897.19;;;8.11;64.03
83691;BME280;73671;43.220;0.064;2023-12-20T01:16:48;98892.25;;;7.95;64.31
83691;BME280;73671;43.220;0.064;2023-12-20T01:19:14;98895.31;;;8.01;64.15
83691;BME280;73671;43.220;0.064;2023-12-20T01:21:40;98897.97;;;8.08;63.89
83691;BME280;73671;43.220;0.064;2023-12-20T01:24:05;98901.47;;;8.12;64.27
83691;BME280;73671;43.220;0.064;2023-12-20T01:26:31;98903.38;;;8.15;63.97
83691;BME280;73671;43.220;0.064;2023-12-20T01:28:56;98903.03;;;8.10;64.66
83691;BME280;73671;43.220;0.064;2023-12-20T01:31:21;98903.41;;;8.08;64.31
83691;BME280;73671;43.220;0.064;2023-12-20T01:33:47;98904.59;;;8.07;64.24
83691;BME280;73671;43.220;0.064;2023-12-20T01:36:12;98900.69;;;8.08;63.87
83691;BME280;73671;43.220;0.064;2023-12-20T01:38:37;98890.22;;;8.10;63.58
83691;BME280;73671;43.220;0.064;2023-12-20T01:41:03;98891.38;;;8.09;64.73
83691;BME280;73671;43.220;0.064;2023-12-20T01:43:29;98887.50;;;8.10;64.75
83691;BME280;73671;43.220;0.064;2023-12-20T01:45:56;98891.38;;;8.16;64.95
83691;BME280;73671;43.220;0.064;2023-12-20T01:48:22;98892.91;;;8.17;65.13
83691;BME280;73671;43.220;0.064;2023-12-20T01:50:49;98889.81;;;8.19;65.71
83691;BME280;73671;43.220;0.064;2023-12-20T01:53:15;98897.53;;;8.20;65.57
83691;BME280;73671;43.220;0.064;2023-12-20T01:55:41;98894.44;;;8.22;66.10
83691;BME280;73671;43.220;0.064;2023-12-20T01:58:08;98895.19;;;8.22;65.69
83691;BME280;73671;43.220;0.064;2023-12-20T02:00:34;98897.53;;;8.20;65.61
83691;BME280;73671;43.220;0.064;2023-12-20T02:03:01;98904.50;;;8.21;66.56
83691;BME280;73671;43.220;0.064;2023-12-20T02:05:28;98903.78;;;8.10;67.00
83691;BME280;73671;43.220;0.064;2023-12-20T02:07:54;98895.31;;;8.04;67.61
83691;BME280;73671;43.220;0.064;2023-12-20T02:10:20;98896.81;;;8.09;66.83
83691;BME280;73671;43.220;0.064;2023-12-20T02:12:45;98902.22;;;8.13;66.78
83691;BME280;73671;43.220;0.064;2023-12-20T02:15:11;98893.69;;;8.14;67.88
83691;BME280;73671;43.220;0.064;2023-12-20T02:17:38;98896.03;;;8.08;67.18
83691;BME280;73671;43.220;0.064;2023-12-20T02:20:05;98897.19;;;8.11;67.17
83691;BME280;73671;43.220;0.064;2023-12-20T02:22:31;98898.38;;;8.06;67.62
83691;BME280;73671;43.220;0.064;2023-12-20T02:24:56;98902.59;;;8.11;67.92
83691;BME280;73671;43.220;0.064;2023-12-20T02:27:23;98899.88;;;8.15;67.72
83691;BME280;73671;43.220;0.064;2023-12-20T02:29:49;98901.03;;;8.17;67.50
83691;BME280;73671;43.220;0.064;2023-12-20T02:32:16;98900.66;;;8.15;68.59
83691;BME280;73671;43.220;0.064;2023-12-20T02:34:42;98907.63;;;8.16;68.01
83691;BME280;73671;43.220;0.064;2023-12-20T02:37:07;98902.56;;;8.18;68.53
83691;BME280;73671;43.220;0.064;2023-12-20T02:39:33;98899.94;;;8.07;69.18
83691;BME280;73671;43.220;0.064;2023-12-20T02:41:58;98897.22;;;8.04;70.08
83691;BME280;73671;43.220;0.064;2023-12-20T02:44:24;98889.91;;;7.97;70.62
83691;BME280;73671;43.220;0.064;2023-12-20T02:46:49;98892.63;;;7.94;71.02
83691;BME280;73671;43.220;0.064;2023-12-20T02:49:15;98893.34;;;8.05;70.11
83691;BME280;73671;43.220;0.064;2023-12-20T02:51:40;98891.78;;;8.04;70.29
83691;BME280;73671;43.220;0.064;2023-12-20T02:54:05;98893.78;;;8.00;71.66
83691;BME280;73671;43.220;0.064;2023-12-20T02:56:34;98892.22;;;7.99;71.88
83691;BME280;73671;43.220;0.064;2023-12-20T02:58:59;98897.63;;;8.02;71.41
83691;BME280;73671;43.220;0.064;2023-12-20T03:01:25;98897.22;;;8.07;70.75
83691;BME280;73671;43.220;0.064;2023-12-20T03:03:50;98904.56;;;8.11;70.70
83691;BME280;73671;43.220;0.064;2023-12-20T03:06:18;98895.63;;;8.14;70.53
83691;BME280;73671;43.220;0.064;2023-12-20T03:08:44;98892.53;;;8.15;70.54
83691;BME280;73671;43.220;0.064;2023-12-20T03:11:09;98889.81;;;8.15;70.64
83691;BME280;73671;43.220;0.064;2023-12-20T03:13:34;98889.91;;;7.94;72.47
83691;BME280;73671;43.220;0.064;2023-12-20T03:16:00;98887.94;;;8.01;71.69
83691;BME280;73671;43.220;0.064;2023-12-20T03:18:25;98889.88;;;8.01;71.76
83691;BME280;73671;43.220;0.064;2023-12-20T03:20:53;98892.28;;;7.84;73.20
83691;BME280;73671;43.220;0.064;2023-12-20T03:23:18;98886.09;;;7.84;72.82
83691;BME280;73671;43.220;0.064;2023-12-20T03:25:43;98891.47;;;7.91;72.25
83691;BME280;73671;43.220;0.064;2023-12-20T03:28:09;98900.03;;;7.82;73.69
83691;BME280;73671;43.220;0.064;2023-12-20T03:30:34;98900.41;;;7.84;73.70
83691;BME280;73671;43.220;0.064;2023-12-20T03:32:59;98893.78;;;7.96;72.70
83691;BME280;73671;43.220;0.064;2023-12-20T03:35:25;98888.34;;;8.00;72.33
83691;BME280;73671;43.220;0.064;2023-12-20T03:37:50;98894.50;;;8.04;72.52
83691;BME280;73671;43.220;0.064;2023-12-20T03:40:15;98897.72;;;7.77;74.67
83691;BME280;73671;43.220;0.064;2023-12-20T03:42:41;98896.16;;;7.83;74.06
83691;BME280;73671;43.220;0.064;2023-12-20T03:45:07;98902.34;;;7.80;74.73
83691;BME280;73671;43.220;0.064;2023-12-20T03:47:32;98896.56;;;7.85;74.31
83691;BME280;73671;43.220;0.064;2023-12-20T03:49:58;98902.34;;;7.80;74.67
83691;BME280;73671;43.220;0.064;2023-12-20T03:52:23;98893.03;;;7.89;74.79
83691;BME280;73671;43.220;0.064;2023-12-20T03:54:48;98892.25;;;7.92;74.61
83691;BME280;73671;43.220;0.064;2023-12-20T03:57:14;98887.59;;;7.96;74.84
83691;BME280;73671;43.220;0.064;2023-12-20T03:59:39;98887.25;;;7.86;76.80
83691;BME280;73671;43.220;0.064;2023-12-20T04:02:04;98886.84;;;7.84;77.24
83691;BME280;73671;43.220;0.064;2023-12-20T04:04:30;98874.41;;;7.98;76.47
83691;BME280;73671;43.220;0.064;2023-12-20T04:06:55;98875.91;;;8.06;76.52
83691;BME280;73671;43.220;0.064;2023-12-20T04:09:20;98871.25;;;8.10;76.32
83691;BME280;73671;43.220;0.064;2023-12-20T04:11:46;98880.50;;;8.16;77.71
83691;BME280;73671;43.220;0.064;2023-12-20T04:14:11;98872.34;;;8.23;77.01
83691;BME280;73671;43.220;0.064;2023-12-20T04:16:37;98878.09;;;8.29;77.51
83691;BME280;73671;43.220;0.064;2023-12-20T04:19:04;98879.59;;;8.37;76.73
83691;BME280;73671;43.220;0.064;2023-12-20T04:21:29;98874.13;;;8.44;77.12
83691;BME280;73671;43.220;0.064;2023-12-20T04:23:55;98875.66;;;8.49;78.19
83691;BME280;73671;43.220;0.064;2023-12-20T04:26:20;98880.66;;;8.54;78.20
83691;BME280;73671;43.220;0.064;2023-12-20T04:28:46;98874.81;;;8.59;78.49
83691;BME280;73671;43.220;0.064;2023-12-20T04:31:14;98883.31;;;8.65;78.15
83691;BME280;73671;43.220;0.064;2023-12-20T04:33:39;98873.97;;;8.69;77.89
83691;BME280;73671;43.220;0.064;2023-12-20T04:36:05;98873.53;;;8.75;77.82
83691;BME280;73671;43.220;0.064;2023-12-20T04:38:30;98878.53;;;8.80;77.75
83691;BME280;73671;43.220;0.064;2023-12-20T04:40:56;98874.22;;;8.82;77.36
83691;BME280;73671;43.220;0.064;2023-12-20T04:43:21;98879.28;;;8.84;77.98
83691;BME280;73671;43.220;0.064;2023-12-20T04:45:47;98876.13;;;8.89;78.28
83691;BME280;73671;43.220;0.064;2023-12-20T04:48:12;98873.78;;;8.91;78.47
83691;BME280;73671;43.220;0.064;2023-12-20T04:50:38;98882.31;;;8.93;78.50
83691;BME280;73671;43.220;0.064;2023-12-20T04:53:03;98880.69;;;8.99;78.58
83691;BME280;73671;43.220;0.064;2023-12-20T04:55:28;98874.47;;;9.02;78.17
83691;BME280;73671;43.220;0.064;2023-12-20T04:57:54;98874.41;;;9.06;78.11
83691;BME280;73671;43.220;0.064;2023-12-20T05:00:20;98875.91;;;9.10;78.05
83691;BME280;73671;43.220;0.064;2023-12-20T05:02:45;98879.78;;;9.13;78.33
83691;BME280;73671;43.220;0.064;2023-12-20T05:05:10;98876.66;;;9.15;78.33
83691;BME280;73671;43.220;0.064;2023-12-20T05:07:36;98881.34;;;9.14;79.37
83691;BME280;73671;43.220;0.064;2023-12-20T05:10:03;98880.50;;;9.21;78.53
83691;BME280;73671;43.220;0.064;2023-12-20T05:12:29;98886.69;;;9.21;78.26
83691;BME280;73671;43.220;0.064;2023-12-20T05:14:55;98894.81;;;9.25;78.40
83691;BME280;73671;43.220;0.064;2023-12-20T05:17:20;98888.22;;;9.26;78.71
83691;BME280;73671;43.220;0.064;2023-12-20T05:19:46;98888.59;;;9.24;78.71
83691;BME280;73671;43.220;0.064;2023-12-20T05:22:11;98895.94;;;9.27;78.61
83691;BME280;73671;43.220;0.064;2023-12-20T05:24:36;98901.34;;;9.31;79.06
83691;BME280;73671;43.220;0.064;2023-12-20T05:27:02;98902.88;;;9.32;78.60
83691;BME280;73671;43.220;0.064;2023-12-20T05:29:27;98911.41;;;9.34;78.39
83691;BME280;73671;43.220;0.064;2023-12-20T05:31:52;98906.34;;;9.36;78.09
83691;BME280;73671;43.220;0.064;2023-12-20T05:34:18;98913.69;;;9.39;78.47
83691;BME280;73671;43.220;0.064;2023-12-20T05:36:44;98919.13;;;9.39;78.25
83691;BME280;73671;43.220;0.064;2023-12-20T05:39:09;98922.19;;;9.41;78.19
83691;BME280;73671;43.220;0.064;2023-12-20T05:41:34;98929.19;;;9.42;78.40
83691;BME280;73671;43.220;0.064;2023-12-20T05:44:00;98933.06;;;9.41;78.49
83691;BME280;73671;43.220;0.064;2023-12-20T05:46:26;98942.38;;;9.44;78.43
83691;BME280;73671;43.220;0.064;2023-12-20T05:48:51;98935.41;;;9.43;78.11
83691;BME280;73671;43.220;0.064;2023-12-20T05:51:17;98952.44;;;9.47;77.30
83691;BME280;73671;43.220;0.064;2023-12-20T05:53:43;98954.38;;;9.46;77.70
83691;BME280;73671;43.220;0.064;2023-12-20T05:56:09;98963.31;;;9.47;77.85
83691;BME280;73671;43.220;0.064;2023-12-20T05:58:34;98961.00;;;9.45;77.65
83691;BME280;73671;43.220;0.064;2023-12-20T06:01:00;98968.75;;;9.47;77.54
83691;BME280;73671;43.220;0.064;2023-12-20T06:03:25;98980.78;;;9.46;77.89
83691;BME280;73671;43.220;0.064;2023-12-20T06:05:51;98981.16;;;9.48;77.45
83691;BME280;73671;43.220;0.064;2023-12-20T06:08:16;98989.72;;;9.46;77.81
83691;BME280;73671;43.220;0.064;2023-12-20T06:10:41;98993.63;;;9.45;77.30
83691;BME280;73671;43.220;0.064;2023-12-20T06:13:07;99001.38;;;9.47;77.13
83691;BME280;73671;43.220;0.064;2023-12-20T06:15:33;99013.03;;;9.47;77.61
83691;BME280;73671;43.220;0.064;2023-12-20T06:17:58;99013.03;;;9.47;77.66
83691;BME280;73671;43.220;0.064;2023-12-20T06:20:23;99020.00;;;9.48;77.30
83691;BME280;73671;43.220;0.064;2023-12-20T06:22:50;99025.44;;;9.48;77.11
83691;BME280;73671;43.220;0.064;2023-12-20T06:25:16;99032.41;;;9.49;76.79
83691;BME280;73671;43.220;0.064;2023-12-20T06:27:41;99034.75;;;9.47;77.55
83691;BME280;73671;43.220;0.064;2023-12-20T06:30:07;99037.91;;;9.42;77.78
83691;BME280;73671;43.220;0.064;2023-12-20T06:32:34;99043.34;;;9.42;76.87
83691;BME280;73671;43.220;0.064;2023-12-20T06:35:00;99047.59;;;9.43;76.82
83691;BME280;73671;43.220;0.064;2023-12-20T06:37:25;99054.19;;;9.46;76.79
83691;BME280;73671;43.220;0.064;2023-12-20T06:39:50;99059.66;;;9.42;76.57
83691;BME280;73671;43.220;0.064;2023-12-20T06:42:16;99056.59;;;9.37;77.11
83691;BME280;73671;43.220;0.064;2023-12-20T06:44:41;99062.78;;;9.37;77.01
83691;BME280;73671;43.220;0.064;2023-12-20T06:47:07;99069.78;;;9.38;76.36
83691;BME280;73671;43.220;0.064;2023-12-20T06:49:33;99084.53;;;9.37;76.38
83691;BME280;73671;43.220;0.064;2023-12-20T06:51:58;99089.63;;;9.35;76.92
83691;BME280;73671;43.220;0.064;2023-12-20T06:54:23;99088.06;;;9.34;76.86
83691;BME280;73671;43.220;0.064;2023-12-20T06:56:49;99095.44;;;9.33;76.70
83691;BME280;73671;43.220;0.064;2023-12-20T06:59:14;99108.63;;;9.35;76.09
83691;BME280;73671;43.220;0.064;2023-12-20T07:01:40;99105.53;;;9.33;76.72
83691;BME280;73671;43.220;0.064;2023-12-20T07:04:05;99108.69;;;9.28;76.45
83691;BME280;73671;43.220;0.064;2023-12-20T07:06:31;99112.56;;;9.30;76.59
83691;BME280;73671;43.220;0.064;2023-12-20T07:08:56;99116.47;;;9.26;76.34
83691;BME280;73671;43.220;0.064;2023-12-20T07:11:22;99118.81;;;9.24;76.47
83691;BME280;73671;43.220;0.064;2023-12-20T07:13:47;99135.09;;;9.24;76.57
83691;BME280;73671;43.220;0.064;2023-12-20T07:16:12;99144.06;;;9.21;76.69
83691;BME280;73671;43.220;0.064;2023-12-20T07:18:38;99140.16;;;9.18;76.36
83691;BME280;73671;43.220;0.064;2023-12-20T07:21:03;99148.34;;;9.11;76.79
83691;BME280;73671;43.220;0.064;2023-12-20T07:23:29;99149.16;;;9.11;76.54
83691;BME280;73671;43.220;0.064;2023-12-20T07:25:54;99164.28;;;9.12;75.96
83691;BME280;73671;43.220;0.064;2023-12-20T07:28:20;99158.84;;;9.12;76.04
83691;BME280;73671;43.220;0.064;2023-12-20T07:30:45;99163.13;;;9.10;75.94
83691;BME280;73671;43.220;0.064;2023-12-20T07:33:11;99171.31;;;9.06;75.78
83691;BME280;73671;43.220;0.064;2023-12-20T07:35:37;99181.75;;;9.11;75.74
83691;BME280;73671;43.220;0.064;2023-12-20T07:38:03;99177.84;;;9.12;76.06
83691;BME280;73671;43.220;0.064;2023-12-20T07:40:28;99184.84;;;9.10;76.00
83691;BME280;73671;43.220;0.064;2023-12-20T07:42:54;99193.81;;;9.03;75.64
83691;BME280;73671;43.220;0.064;2023-12-20T07:45:19;99198.47;;;9.06;75.59
83691;BME280;73671;43.220;0.064;2023-12-20T07:47:44;99207.38;;;9.07;75.84
83691;BME280;73671;43.220;0.064;2023-12-20T07:50:10;99212.06;;;8.99;76.17
83691;BME280;73671;43.220;0.064;2023-12-20T07:52:35;99218.25;;;9.03;75.53
83691;BME280;73671;43.220;0.064;2023-12-20T07:55:01;99222.16;;;9.02;75.76
83691;BME280;73671;43.220;0.064;2023-12-20T07:57:29;99228.34;;;9.06;75.52
83691;BME280;73671;43.220;0.064;2023-12-20T07:59:55;99226.78;;;9.05;75.65
83691;BME280;73671;43.220;0.064;2023-12-20T08:02:20;99240.75;;;9.07;75.55
83691;BME280;73671;43.220;0.064;2023-12-20T08:04:45;99247.72;;;9.08;75.28
83691;BME280;73671;43.220;0.064;2023-12-20T08:07:11;99253.97;;;9.05;75.20
83691;BME280;73671;43.220;0.064;2023-12-20T08:09:36;99257.06;;;9.07;74.60
83691;BME280;73671;43.220;0.064;2023-12-20T08:12:02;99266.38;;;9.06;75.13
83691;BME280;73671;43.220;0.064;2023-12-20T08:14:27;99271.81;;;9.06;74.87
83691;BME280;73671;43.220;0.064;2023-12-20T08:16:53;99269.88;;;9.07;75.30
83691;BME280;73671;43.220;0.064;2023-12-20T08:19:18;99278.03;;;9.03;75.46
83691;BME280;73671;43.220;0.064;2023-12-20T08:21:44;99271.41;;;9.08;75.26
83691;BME280;73671;43.220;0.064;2023-12-20T08:24:09;99274.91;;;9.08;74.96
83691;BME280;73671;43.220;0.064;2023-12-20T08:26:35;99277.63;;;9.08;74.66
83691;BME280;73671;43.220;0.064;2023-12-20T08:29:00;99285.75;;;9.08;74.99
83691;BME280;73671;43.220;0.064;2023-12-20T08:31:25;99288.47;;;9.12;75.21
83691;BME280;73671;43.220;0.064;2023-12-20T08:33:51;99291.19;;;9.16;74.93
83691;BME280;73671;43.220;0.064;2023-12-20T08:36:19;99302.44;;;9.18;74.96
83691;BME280;73671;43.220;0.064;2023-12-20T08:38:46;99300.09;;;9.20;74.98
83691;BME280;73671;43.220;0.064;2023-12-20T08:41:12;99301.66;;;9.21;74.74
83691;BME280;73671;43.220;0.064;2023-12-20T08:43:37;99304.34;;;9.24;74.42
83691;BME280;73671;43.220;0.064;2023-12-20T08:46:05;99302.41;;;9.25;74.69
83691;BME280;73671;43.220;0.064;2023-12-20T08:48:31;99318.72;;;9.25;74.47
83691;BME280;73671;43.220;0.064;2023-12-20T08:50:56;99316.00;;;9.25;74.70
83691;BME280;73671;43.220;0.064;2023-12-20T08:53:21;99320.66;;;9.28;74.03
83691;BME280;73671;43.220;0.064;2023-12-20T08:55:47;99323.00;;;9.26;74.85
83691;BME280;73671;43.220;0.064;2023-12-20T08:58:12;99323.75;;;9.23;74.89
83691;BME280;73671;43.220;0.064;2023-12-20T09:00:38;99337.72;;;9.25;74.13
83691;BME280;73671;43.220;0.064;2023-12-20T09:03:04;99338.13;;;9.27;73.71
83691;BME280;73671;43.220;0.064;2023-12-20T09:05:30;99338.50;;;9.29;73.62
83691;BME280;73671;43.220;0.064;2023-12-20T09:07:55;99340.47;;;9.28;74.35
83691;BME280;73671;43.220;0.064;2023-12-20T09:10:20;99344.31;;;9.31;73.73
83691;BME280;73671;43.220;0.064;2023-12-20T09:12:51;99344.31;;;9.31;73.38
83691;BME280;73671;43.220;0.064;2023-12-20T09:15:19;99345.47;;;9.33;73.87
83691;BME280;73671;43.220;0.064;2023-12-20T09:17:44;99349.75;;;9.34;73.97
83691;BME280;73671;43.220;0.064;2023-12-20T09:20:10;99340.03;;;9.37;73.57
83691;BME280;73671;43.220;0.064;2023-12-20T09:22:35;99350.13;;;9.40;74.04
83691;BME280;73671;43.220;0.064;2023-12-20T09:25:03;99352.44;;;9.45;73.53
83691;BME280;73671;43.220;0.064;2023-12-20T09:27:29;99351.63;;;9.52;73.55
83691;BME280;73671;43.220;0.064;2023-12-20T09:29:54;99340.72;;;9.55;73.44
83691;BME280;73671;43.220;0.064;2023-12-20T09:32:20;99350.03;;;9.62;73.11
83691;BME280;73671;43.220;0.064;2023-12-20T09:34:45;99349.22;;;9.72;73.18
83691;BME280;73671;43.220;0.064;2023-12-20T09:37:11;99352.66;;;9.80;73.13
83691;BME280;73671;43.220;0.064;2023-12-20T09:39:36;99361.16;;;9.92;72.89
83691;BME280;73671;43.220;0.064;2023-12-20T09:42:06;99370.81;;;10.01;72.65
83691;BME280;73671;43.220;0.064;2023-12-20T09:44:32;99370.03;;;10.07;72.17
83691;BME280;73671;43.220;0.064;2023-12-20T09:47:02;99376.94;;;10.19;72.19
83691;BME280;73671;43.220;0.064;2023-12-20T09:49:27;99384.69;;;10.28;71.89
83691;BME280;73671;43.220;0.064;2023-12-20T09:51:53;99384.69;;;10.31;71.56
83691;BME280;73671;43.220;0.064;2023-12-20T09:54:20;99387.00;;;10.29;71.57
83691;BME280;73671;43.220;0.064;2023-12-20T09:56:46;99382.34;;;10.26;71.55
83691;BME280;73671;43.220;0.064;2023-12-20T09:59:12;99381.97;;;10.24;71.04
83691;BME280;73671;43.220;0.064;2023-12-20T10:01:39;99379.66;;;10.19;71.41
83691;BME280;73671;43.220;0.064;2023-12-20T10:04:06;99384.78;;;10.13;71.15
83691;BME280;73671;43.220;0.064;2023-12-20T10:06:35;99383.97;;;10.13;71.36
83691;BME280;73671;43.220;0.064;2023-12-20T10:09:01;99379.34;;;10.10;71.60
83691;BME280;73671;43.220;0.064;2023-12-20T10:11:26;99379.75;;;10.05;71.14
83691;BME280;73671;43.220;0.064;2023-12-20T10:13:59;99370.44;;;10.02;70.79
83691;BME280;73671;43.220;0.064;2023-12-20T10:16:26;99365.38;;;10.01;71.37
83691;BME280;73671;43.220;0.064;2023-12-20T10:18:56;99368.53;;;9.99;71.06
83691;BME280;73671;43.220;0.064;2023-12-20T10:21:25;99363.84;;;9.96;70.80
83691;BME280;73671;43.220;0.064;2023-12-20T10:23:57;99357.63;;;9.99;70.97
83691;BME280;73671;43.220;0.064;2023-12-20T10:26:24;99359.16;;;10.04;70.73
83691;BME280;73671;43.220;0.064;2023-12-20T10:28:54;99367.28;;;10.11;70.91
83691;BME280;73671;43.220;0.064;2023-12-20T10:31:30;99368.41;;;10.17;70.89
83691;BME280;73671;43.220;0.064;2023-12-20T10:33:57;99367.53;;;10.34;70.96
83691;BME280;73671;43.220;0.064;2023-12-20T10:36:25;99374.50;;;10.43;70.91
83691;BME280;73671;43.220;0.064;2023-12-20T10:38:52;99376.81;;;10.44;70.89
83691;BME280;73671;43.220;0.064;2023-12-20T10:41:24;99377.59;;;10.45;70.46
83691;BME280;73671;43.220;0.064;2023-12-20T10:43:51;99376.06;;;10.40;70.07
83691;BME280;73671;43.220;0.064;2023-12-20T10:46:19;99363.63;;;10.39;69.63
83691;BME280;73671;43.220;0.064;2023-12-20T10:48:45;99363.88;;;10.59;69.77
83691;BME280;73671;43.220;0.064;2023-12-20T10:51:13;99356.13;;;10.99;68.85
83691;BME280;73671;43.220;0.064;2023-12-20T10:53:40;99361.69;;;12.22;67.30
83691;BME280;73671;43.220;0.064;2023-12-20T10:56:07;99347.81;;;13.07;65.88
83691;BME280;73671;43.220;0.064;2023-12-20T10:58:33;99348.16;;;13.32;64.02
83691;BME280;73671;43.220;0.064;2023-12-20T11:01:01;99358.69;;;14.27;61.95
83691;BME280;73671;43.220;0.064;2023-12-20T11:03:27;99363.16;;;15.02;59.99
83691;BME280;73671;43.220;0.064;2023-12-20T11:06:08;99355.06;;;15.41;55.39
83691;BME280;73671;43.220;0.064;2023-12-20T11:08:50;99358.25;;;15.39;55.20
83691;BME280;73671;43.220;0.064;2023-12-20T11:14:06;99363.81;;;15.65;52.59
83691;BME280;73671;43.220;0.064;2023-12-20T11:16:37;99357.44;;;15.26;53.39
83691;BME280;73671;43.220;0.064;2023-12-20T11:19:05;99367.38;;;15.78;52.33
83691;BME280;73671;43.220;0.064;2023-12-20T11:21:31;99365.00;;;16.31;51.76
83691;BME280;73671;43.220;0.064;2023-12-20T11:23:57;99367.63;;;15.97;51.21
83691;BME280;73671;43.220;0.064;2023-12-20T11:26:27;99363.19;;;15.15;50.80
83691;BME280;73671;43.220;0.064;2023-12-20T11:28:53;99379.44;;;14.44;52.60
83691;BME280;73671;43.220;0.064;2023-12-20T11:31:19;99377.66;;;14.01;53.26
83691;BME280;73671;43.220;0.064;2023-12-20T11:33:45;99376.38;;;13.69;54.23
83691;BME280;73671;43.220;0.064;2023-12-20T11:36:16;99379.66;;;13.41;54.17
83691;BME280;73671;43.220;0.064;2023-12-20T11:38:56;99366.09;;;13.33;53.29
83691;BME280;73671;43.220;0.064;2023-12-20T11:41:23;99367.25;;;13.12;54.77
83691;BME280;73671;43.220;0.064;2023-12-20T11:43:53;99368.41;;;12.91;54.50
83691;BME280;73671;43.220;0.064;2023-12-20T11:46:18;99370.41;;;12.64;55.15
83691;BME280;73671;43.220;0.064;2023-12-20T11:48:44;99368.31;;;12.48;55.13
83691;BME280;73671;43.220;0.064;2023-12-20T11:51:13;99356.44;;;12.07;55.18
83691;BME280;73671;43.220;0.064;2023-12-20T11:53:40;99357.59;;;11.79;56.31
83691;BME280;73671;43.220;0.064;2023-12-20T11:56:06;99365.97;;;11.61;56.37
83691;BME280;73671;43.220;0.064;2023-12-20T11:58:33;99365.03;;;11.41;55.20
83691;BME280;73671;43.220;0.064;2023-12-20T12:00:58;99361.97;;;11.35;55.11
83691;BME280;73671;43.220;0.064;2023-12-20T12:03:24;99352.41;;;11.54;54.09
83691;BME280;73671;43.220;0.064;2023-12-20T12:05:49;99365.22;;;11.57;54.53
83691;BME280;73671;43.220;0.064;2023-12-20T12:08:15;99363.34;;;11.51;53.79
83691;BME280;73671;43.220;0.064;2023-12-20T12:10:41;99350.09;;;11.83;53.54
83691;BME280;73671;43.220;0.064;2023-12-20T12:13:07;99350.09;;;11.83;53.54
83691;BME280;73671;43.220;0.064;2023-12-20T12:15:32;71229.28;;;-146.39;100.00
83691;BME280;73671;43.220;0.064;2023-12-20T12:17:57;99360.22;;;12.41;53.23
83691;BME280;73671;43.220;0.064;2023-12-20T12:20:24;99360.22;;;12.41;53.23
83691;BME280;73671;43.220;0.064;2023-12-20T12:23:04;99353.88;;;11.62;54.70
83691;BME280;73671;43.220;0.064;2023-12-20T12:25:32;71229.28;;;11.33;100.00
83691;BME280;73671;43.220;0.064;2023-12-20T12:27:58;99364.47;;;11.22;100.00
83691;BME280;73671;43.220;0.064;2023-12-20T12:30:24;99366.22;;;11.02;56.71
83691;BME280;73671;43.220;0.064;2023-12-20T12:32:51;99371.00;;;10.91;57.18
83691;BME280;73671;43.220;0.064;2023-12-20T12:35:17;99366.91;;;10.68;57.82
83691;BME280;73671;43.220;0.064;2023-12-20T12:37:43;99365.78;;;10.62;57.88
83691;BME280;73671;43.220;0.064;2023-12-20T12:40:12;99376.72;;;10.58;58.78
83691;BME280;73671;43.220;0.064;2023-12-20T12:42:39;99372.84;;;10.56;58.51
83691;BME280;73671;43.220;0.064;2023-12-20T12:45:06;99378.31;;;10.52;58.68
83691;BME280;73671;43.220;0.064;2023-12-20T12:47:32;99372.91;;;10.49;58.81
83691;BME280;73671;43.220;0.064;2023-12-20T12:49:57;99385.44;;;10.35;58.85
83691;BME280;73671;43.220;0.064;2023-12-20T12:52:23;99385.00;;;10.40;58.60
83691;BME280;73671;43.220;0.064;2023-12-20T12:54:49;99382.22;;;10.48;59.04
83691;BME280;73671;43.220;0.064;2023-12-20T12:57:14;99380.75;;;10.39;58.20
83691;BME280;73671;43.220;0.064;2023-12-20T12:59:43;99383.44;;;10.43;58.70
83691;BME280;73671;43.220;0.064;2023-12-20T13:02:11;99377.66;;;10.37;58.71
83691;BME280;73671;43.220;0.064;2023-12-20T13:04:36;99374.53;;;10.35;58.22